Ryde, Pennsylvania
Current Conditions -  °F | °C
As of 5:53 PM on Thursday 27 Nov 2014 (Local Time) from KUNV Reporting Station
Overcast Overcast  
Wind Chill: 26°   Ceiling: 6000
Heat Index: 32°   Visibility: 10mi
Dew Point: 27°   Wind: 6mph
Humidity: 80%   Direction: 270°W
Pressure: 30.05"   Gusts: NA
Location:  40.5138°N, 77.7384°W
Report Text: KUNV 272253Z 27005KT 10SM OVC060 00/M03 A3005
Loading
Personal Weather Stations






























Interactive Weather Map New forecast layout! Learn more

10-Day Weather Forecast

Advertisements
Track Severe Weather on mobile